sensor_id;sensor_type;location;lat;lon;timestamp;P1;durP1;ratioP1;P2;durP2;ratioP2
24743;SDS011;12844;52.110;5.548;2023-07-02T00:02:20;1.90;;;1.40;;
24743;SDS011;12844;52.110;5.548;2023-07-02T00:04:48;3.58;;;1.63;;
24743;SDS011;12844;52.110;5.548;2023-07-02T00:07:14;3.55;;;1.55;;
24743;SDS011;12844;52.110;5.548;2023-07-02T00:09:40;2.63;;;1.30;;
24743;SDS011;12844;52.110;5.548;2023-07-02T00:12:06;2.45;;;1.77;;
24743;SDS011;12844;52.110;5.548;2023-07-02T00:14:32;2.13;;;1.40;;
24743;SDS011;12844;52.110;5.548;2023-07-02T00:16:57;2.75;;;1.20;;
24743;SDS011;12844;52.110;5.548;2023-07-02T00:19:23;1.90;;;1.45;;
24743;SDS011;12844;52.110;5.548;2023-07-02T00:21:49;2.00;;;1.40;;
24743;SDS011;12844;52.110;5.548;2023-07-02T00:24:14;3.63;;;1.60;;
24743;SDS011;12844;52.110;5.548;2023-07-02T00:26:41;1.67;;;1.35;;
24743;SDS011;12844;52.110;5.548;2023-07-02T00:29:06;1.48;;;1.38;;
24743;SDS011;12844;52.110;5.548;2023-07-02T00:31:34;1.55;;;1.23;;
24743;SDS011;12844;52.110;5.548;2023-07-02T00:34:00;1.70;;;1.40;;
24743;SDS011;12844;52.110;5.548;2023-07-02T00:36:26;1.73;;;1.30;;
24743;SDS011;12844;52.110;5.548;2023-07-02T00:38:52;1.95;;;1.35;;
24743;SDS011;12844;52.110;5.548;2023-07-02T00:41:17;2.42;;;1.80;;
24743;SDS011;12844;52.110;5.548;2023-07-02T00:43:43;3.08;;;1.60;;
24743;SDS011;12844;52.110;5.548;2023-07-02T00:46:18;2.38;;;1.70;;
24743;SDS011;12844;52.110;5.548;2023-07-02T00:48:49;2.78;;;1.40;;
24743;SDS011;12844;52.110;5.548;2023-07-02T00:51:20;2.78;;;1.50;;
24743;SDS011;12844;52.110;5.548;2023-07-02T00:53:47;2.28;;;1.40;;
24743;SDS011;12844;52.110;5.548;2023-07-02T00:56:14;2.03;;;1.27;;
24743;SDS011;12844;52.110;5.548;2023-07-02T00:58:42;2.70;;;1.80;;
24743;SDS011;12844;52.110;5.548;2023-07-02T01:03:52;2.55;;;1.75;;
24743;SDS011;12844;52.110;5.548;2023-07-02T01:06:25;2.92;;;1.60;;
24743;SDS011;12844;52.110;5.548;2023-07-02T01:08:56;1.95;;;1.50;;
24743;SDS011;12844;52.110;5.548;2023-07-02T01:11:34;2.00;;;1.40;;
24743;SDS011;12844;52.110;5.548;2023-07-02T01:14:13;1.75;;;1.33;;
24743;SDS011;12844;52.110;5.548;2023-07-02T01:16:43;2.63;;;1.65;;
24743;SDS011;12844;52.110;5.548;2023-07-02T01:19:18;2.97;;;1.60;;
24743;SDS011;12844;52.110;5.548;2023-07-02T01:21:47;2.67;;;1.60;;
24743;SDS011;12844;52.110;5.548;2023-07-02T01:24:13;2.72;;;1.63;;
24743;SDS011;12844;52.110;5.548;2023-07-02T01:26:39;2.28;;;1.67;;
24743;SDS011;12844;52.110;5.548;2023-07-02T01:29:15;4.38;;;1.80;;
24743;SDS011;12844;52.110;5.548;2023-07-02T01:31:45;3.97;;;1.50;;
24743;SDS011;12844;52.110;5.548;2023-07-02T01:34:11;2.45;;;1.63;;
24743;SDS011;12844;52.110;5.548;2023-07-02T01:36:37;1.95;;;1.42;;
24743;SDS011;12844;52.110;5.548;2023-07-02T01:39:03;2.25;;;1.50;;
24743;SDS011;12844;52.110;5.548;2023-07-02T01:41:29;2.83;;;1.65;;
24743;SDS011;12844;52.110;5.548;2023-07-02T01:43:57;2.58;;;1.42;;
24743;SDS011;12844;52.110;5.548;2023-07-02T01:46:22;2.25;;;1.60;;
24743;SDS011;12844;52.110;5.548;2023-07-02T01:48:48;2.13;;;1.80;;
24743;SDS011;12844;52.110;5.548;2023-07-02T01:51:13;2.90;;;1.88;;
24743;SDS011;12844;52.110;5.548;2023-07-02T01:53:39;2.60;;;1.65;;
24743;SDS011;12844;52.110;5.548;2023-07-02T01:56:04;3.08;;;1.60;;
24743;SDS011;12844;52.110;5.548;2023-07-02T01:58:30;3.80;;;2.08;;
24743;SDS011;12844;52.110;5.548;2023-07-02T02:00:55;2.72;;;1.50;;
24743;SDS011;12844;52.110;5.548;2023-07-02T02:03:21;2.17;;;1.60;;
24743;SDS011;12844;52.110;5.548;2023-07-02T02:05:47;2.63;;;1.55;;
24743;SDS011;12844;52.110;5.548;2023-07-02T02:08:13;1.83;;;1.50;;
24743;SDS011;12844;52.110;5.548;2023-07-02T02:10:38;2.97;;;1.90;;
24743;SDS011;12844;52.110;5.548;2023-07-02T02:13:04;4.20;;;1.80;;
24743;SDS011;12844;52.110;5.548;2023-07-02T02:15:30;3.67;;;1.95;;
24743;SDS011;12844;52.110;5.548;2023-07-02T02:17:55;2.83;;;1.77;;
24743;SDS011;12844;52.110;5.548;2023-07-02T02:20:21;2.50;;;1.80;;
24743;SDS011;12844;52.110;5.548;2023-07-02T02:22:46;1.70;;;1.60;;
24743;SDS011;12844;52.110;5.548;2023-07-02T02:25:12;2.70;;;1.80;;
24743;SDS011;12844;52.110;5.548;2023-07-02T02:27:38;3.05;;;1.90;;
24743;SDS011;12844;52.110;5.548;2023-07-02T02:30:04;3.00;;;1.70;;
24743;SDS011;12844;52.110;5.548;2023-07-02T02:32:30;2.63;;;2.03;;
24743;SDS011;12844;52.110;5.548;2023-07-02T02:34:55;2.75;;;1.70;;
24743;SDS011;12844;52.110;5.548;2023-07-02T02:37:21;2.65;;;1.73;;
24743;SDS011;12844;52.110;5.548;2023-07-02T02:39:48;2.33;;;1.83;;
24743;SDS011;12844;52.110;5.548;2023-07-02T02:42:13;2.90;;;2.10;;
24743;SDS011;12844;52.110;5.548;2023-07-02T02:44:39;2.72;;;1.98;;
24743;SDS011;12844;52.110;5.548;2023-07-02T02:47:04;3.83;;;1.70;;
24743;SDS011;12844;52.110;5.548;2023-07-02T02:49:30;2.88;;;1.70;;
24743;SDS011;12844;52.110;5.548;2023-07-02T02:51:56;2.28;;;1.83;;
24743;SDS011;12844;52.110;5.548;2023-07-02T02:54:22;2.67;;;1.70;;
24743;SDS011;12844;52.110;5.548;2023-07-02T02:56:47;3.78;;;2.22;;
24743;SDS011;12844;52.110;5.548;2023-07-02T02:59:13;2.65;;;1.80;;
24743;SDS011;12844;52.110;5.548;2023-07-02T03:01:38;4.43;;;2.08;;
24743;SDS011;12844;52.110;5.548;2023-07-02T03:04:04;3.80;;;2.17;;
24743;SDS011;12844;52.110;5.548;2023-07-02T03:06:33;3.35;;;1.85;;
24743;SDS011;12844;52.110;5.548;2023-07-02T03:08:59;3.42;;;2.17;;
24743;SDS011;12844;52.110;5.548;2023-07-02T03:11:24;2.90;;;1.98;;
24743;SDS011;12844;52.110;5.548;2023-07-02T03:13:50;3.33;;;2.10;;
24743;SDS011;12844;52.110;5.548;2023-07-02T03:16:15;3.90;;;2.10;;
24743;SDS011;12844;52.110;5.548;2023-07-02T03:18:41;3.33;;;1.98;;
24743;SDS011;12844;52.110;5.548;2023-07-02T03:21:06;4.25;;;2.13;;
24743;SDS011;12844;52.110;5.548;2023-07-02T03:23:32;3.63;;;2.30;;
24743;SDS011;12844;52.110;5.548;2023-07-02T03:25:58;3.60;;;2.00;;
24743;SDS011;12844;52.110;5.548;2023-07-02T03:28:23;3.20;;;1.80;;
24743;SDS011;12844;52.110;5.548;2023-07-02T03:30:49;3.15;;;2.25;;
24743;SDS011;12844;52.110;5.548;2023-07-02T03:33:14;3.17;;;1.98;;
24743;SDS011;12844;52.110;5.548;2023-07-02T03:35:40;3.47;;;2.15;;
24743;SDS011;12844;52.110;5.548;2023-07-02T03:38:05;4.35;;;2.53;;
24743;SDS011;12844;52.110;5.548;2023-07-02T03:40:31;2.55;;;2.10;;
24743;SDS011;12844;52.110;5.548;2023-07-02T03:42:57;3.67;;;2.15;;
24743;SDS011;12844;52.110;5.548;2023-07-02T03:45:22;3.40;;;2.13;;
24743;SDS011;12844;52.110;5.548;2023-07-02T03:47:48;3.65;;;2.25;;
24743;SDS011;12844;52.110;5.548;2023-07-02T03:50:13;3.60;;;2.50;;
24743;SDS011;12844;52.110;5.548;2023-07-02T03:52:39;2.50;;;1.95;;
24743;SDS011;12844;52.110;5.548;2023-07-02T03:55:04;3.45;;;2.13;;
24743;SDS011;12844;52.110;5.548;2023-07-02T03:57:30;3.65;;;2.58;;
24743;SDS011;12844;52.110;5.548;2023-07-02T03:59:56;3.95;;;2.60;;
24743;SDS011;12844;52.110;5.548;2023-07-02T04:02:21;4.20;;;2.67;;
24743;SDS011;12844;52.110;5.548;2023-07-02T04:04:47;4.03;;;2.45;;
24743;SDS011;12844;52.110;5.548;2023-07-02T04:07:12;3.20;;;2.60;;
24743;SDS011;12844;52.110;5.548;2023-07-02T04:09:38;3.50;;;2.30;;
24743;SDS011;12844;52.110;5.548;2023-07-02T04:12:04;3.92;;;2.30;;
24743;SDS011;12844;52.110;5.548;2023-07-02T04:14:29;3.47;;;2.50;;
24743;SDS011;12844;52.110;5.548;2023-07-02T04:16:55;3.70;;;2.50;;
24743;SDS011;12844;52.110;5.548;2023-07-02T04:19:21;3.42;;;2.28;;
24743;SDS011;12844;52.110;5.548;2023-07-02T04:21:46;3.20;;;2.35;;
24743;SDS011;12844;52.110;5.548;2023-07-02T04:24:12;4.47;;;2.35;;
24743;SDS011;12844;52.110;5.548;2023-07-02T04:26:37;4.18;;;2.58;;
24743;SDS011;12844;52.110;5.548;2023-07-02T04:29:07;3.15;;;2.20;;
24743;SDS011;12844;52.110;5.548;2023-07-02T04:31:33;4.65;;;2.50;;
24743;SDS011;12844;52.110;5.548;2023-07-02T04:33:59;3.30;;;2.22;;
24743;SDS011;12844;52.110;5.548;2023-07-02T04:36:25;3.63;;;2.25;;
24743;SDS011;12844;52.110;5.548;2023-07-02T04:38:50;5.70;;;2.70;;
24743;SDS011;12844;52.110;5.548;2023-07-02T04:41:17;3.75;;;2.67;;
24743;SDS011;12844;52.110;5.548;2023-07-02T04:43:44;3.30;;;2.55;;
24743;SDS011;12844;52.110;5.548;2023-07-02T04:46:10;4.65;;;2.42;;
24743;SDS011;12844;52.110;5.548;2023-07-02T04:48:37;6.80;;;2.88;;
24743;SDS011;12844;52.110;5.548;2023-07-02T04:51:03;4.65;;;2.80;;
24743;SDS011;12844;52.110;5.548;2023-07-02T04:53:28;4.20;;;2.63;;
24743;SDS011;12844;52.110;5.548;2023-07-02T04:55:54;6.47;;;3.08;;
24743;SDS011;12844;52.110;5.548;2023-07-02T04:58:21;4.00;;;3.00;;
24743;SDS011;12844;52.110;5.548;2023-07-02T05:00:47;5.05;;;3.00;;
24743;SDS011;12844;52.110;5.548;2023-07-02T05:03:12;5.22;;;3.22;;
24743;SDS011;12844;52.110;5.548;2023-07-02T05:05:38;7.97;;;3.10;;
24743;SDS011;12844;52.110;5.548;2023-07-02T05:08:03;6.40;;;3.85;;
24743;SDS011;12844;52.110;5.548;2023-07-02T05:10:32;5.50;;;3.40;;
24743;SDS011;12844;52.110;5.548;2023-07-02T05:12:58;5.25;;;3.40;;
24743;SDS011;12844;52.110;5.548;2023-07-02T05:15:24;4.78;;;3.20;;
24743;SDS011;12844;52.110;5.548;2023-07-02T05:17:49;6.95;;;3.50;;
24743;SDS011;12844;52.110;5.548;2023-07-02T05:20:15;6.30;;;3.65;;
24743;SDS011;12844;52.110;5.548;2023-07-02T05:22:40;7.22;;;3.50;;
24743;SDS011;12844;52.110;5.548;2023-07-02T05:25:06;5.72;;;3.33;;
24743;SDS011;12844;52.110;5.548;2023-07-02T05:27:32;6.20;;;3.30;;
24743;SDS011;12844;52.110;5.548;2023-07-02T05:29:57;5.22;;;2.92;;
24743;SDS011;12844;52.110;5.548;2023-07-02T05:32:23;5.95;;;3.80;;
24743;SDS011;12844;52.110;5.548;2023-07-02T05:34:49;5.53;;;3.50;;
24743;SDS011;12844;52.110;5.548;2023-07-02T05:37:14;6.90;;;3.70;;
24743;SDS011;12844;52.110;5.548;2023-07-02T05:39:40;6.07;;;3.40;;
24743;SDS011;12844;52.110;5.548;2023-07-02T05:42:05;4.68;;;3.05;;
24743;SDS011;12844;52.110;5.548;2023-07-02T05:44:31;4.90;;;3.35;;
24743;SDS011;12844;52.110;5.548;2023-07-02T05:46:56;6.15;;;3.30;;
24743;SDS011;12844;52.110;5.548;2023-07-02T05:49:22;9.65;;;3.80;;
24743;SDS011;12844;52.110;5.548;2023-07-02T05:51:47;4.82;;;3.20;;
24743;SDS011;12844;52.110;5.548;2023-07-02T05:54:13;5.03;;;3.25;;
24743;SDS011;12844;52.110;5.548;2023-07-02T05:56:39;5.45;;;3.10;;
24743;SDS011;12844;52.110;5.548;2023-07-02T05:59:04;5.55;;;3.60;;
24743;SDS011;12844;52.110;5.548;2023-07-02T06:01:30;6.50;;;3.58;;
24743;SDS011;12844;52.110;5.548;2023-07-02T06:03:55;6.47;;;3.90;;
24743;SDS011;12844;52.110;5.548;2023-07-02T06:06:21;5.63;;;3.53;;
24743;SDS011;12844;52.110;5.548;2023-07-02T06:08:50;6.25;;;3.70;;
24743;SDS011;12844;52.110;5.548;2023-07-02T06:11:16;5.85;;;3.75;;
24743;SDS011;12844;52.110;5.548;2023-07-02T06:13:41;6.97;;;3.80;;
24743;SDS011;12844;52.110;5.548;2023-07-02T06:16:07;6.15;;;3.60;;
24743;SDS011;12844;52.110;5.548;2023-07-02T06:18:33;5.22;;;3.70;;
24743;SDS011;12844;52.110;5.548;2023-07-02T06:20:58;5.75;;;3.58;;
24743;SDS011;12844;52.110;5.548;2023-07-02T06:23:24;6.80;;;3.70;;
24743;SDS011;12844;52.110;5.548;2023-07-02T06:25:50;8.10;;;4.05;;
24743;SDS011;12844;52.110;5.548;2023-07-02T06:28:23;8.23;;;3.78;;
24743;SDS011;12844;52.110;5.548;2023-07-02T06:30:52;5.47;;;3.80;;
24743;SDS011;12844;52.110;5.548;2023-07-02T06:33:17;5.47;;;3.72;;
24743;SDS011;12844;52.110;5.548;2023-07-02T06:35:43;4.75;;;3.38;;
24743;SDS011;12844;52.110;5.548;2023-07-02T06:38:08;5.30;;;3.50;;
24743;SDS011;12844;52.110;5.548;2023-07-02T06:40:34;4.47;;;3.10;;
24743;SDS011;12844;52.110;5.548;2023-07-02T06:42:59;4.68;;;2.95;;
24743;SDS011;12844;52.110;5.548;2023-07-02T06:45:25;6.18;;;3.63;;
24743;SDS011;12844;52.110;5.548;2023-07-02T06:47:50;5.57;;;3.67;;
24743;SDS011;12844;52.110;5.548;2023-07-02T06:50:16;5.88;;;3.80;;
24743;SDS011;12844;52.110;5.548;2023-07-02T06:52:41;5.60;;;3.40;;
24743;SDS011;12844;52.110;5.548;2023-07-02T06:55:07;5.32;;;3.50;;
24743;SDS011;12844;52.110;5.548;2023-07-02T06:57:33;6.03;;;3.67;;
24743;SDS011;12844;52.110;5.548;2023-07-02T06:59:59;5.53;;;3.60;;
24743;SDS011;12844;52.110;5.548;2023-07-02T07:02:24;4.78;;;3.33;;
24743;SDS011;12844;52.110;5.548;2023-07-02T07:04:50;5.43;;;3.47;;
24743;SDS011;12844;52.110;5.548;2023-07-02T07:07:16;4.53;;;3.42;;
24743;SDS011;12844;52.110;5.548;2023-07-02T07:09:41;5.90;;;3.40;;
24743;SDS011;12844;52.110;5.548;2023-07-02T07:12:07;4.72;;;3.35;;
24743;SDS011;12844;52.110;5.548;2023-07-02T07:14:33;4.93;;;3.40;;
24743;SDS011;12844;52.110;5.548;2023-07-02T07:16:58;5.75;;;3.40;;
24743;SDS011;12844;52.110;5.548;2023-07-02T07:19:24;4.78;;;3.40;;
24743;SDS011;12844;52.110;5.548;2023-07-02T07:21:49;5.82;;;3.17;;
24743;SDS011;12844;52.110;5.548;2023-07-02T07:24:15;5.50;;;3.33;;
24743;SDS011;12844;52.110;5.548;2023-07-02T07:26:40;6.38;;;3.40;;
24743;SDS011;12844;52.110;5.548;2023-07-02T07:29:06;6.18;;;3.70;;
24743;SDS011;12844;52.110;5.548;2023-07-02T07:31:31;6.32;;;3.58;;
24743;SDS011;12844;52.110;5.548;2023-07-02T07:33:57;6.10;;;3.33;;
24743;SDS011;12844;52.110;5.548;2023-07-02T13:31:06;7.00;;;3.30;;
24743;SDS011;12844;52.110;5.548;2023-07-02T13:33:34;6.43;;;3.20;;
24743;SDS011;12844;52.110;5.548;2023-07-02T13:35:59;5.80;;;3.35;;
24743;SDS011;12844;52.110;5.548;2023-07-02T13:38:25;5.85;;;3.33;;
24743;SDS011;12844;52.110;5.548;2023-07-02T13:40:50;6.38;;;3.28;;
24743;SDS011;12844;52.110;5.548;2023-07-02T13:43:16;6.82;;;3.60;;
24743;SDS011;12844;52.110;5.548;2023-07-02T15:55:36;5.40;;;2.78;;
24743;SDS011;12844;52.110;5.548;2023-07-02T15:58:02;5.50;;;3.05;;
24743;SDS011;12844;52.110;5.548;2023-07-02T16:00:27;4.05;;;3.15;;
24743;SDS011;12844;52.110;5.548;2023-07-02T16:02:53;4.38;;;3.00;;
24743;SDS011;12844;52.110;5.548;2023-07-02T16:05:18;4.68;;;3.38;;
24743;SDS011;12844;52.110;5.548;2023-07-02T16:07:44;4.35;;;2.88;;
24743;SDS011;12844;52.110;5.548;2023-07-02T16:10:09;5.05;;;3.10;;
24743;SDS011;12844;52.110;5.548;2023-07-02T16:12:35;4.60;;;3.40;;
24743;SDS011;12844;52.110;5.548;2023-07-02T17:22:24;3.95;;;3.10;;
24743;SDS011;12844;52.110;5.548;2023-07-02T17:24:52;4.40;;;3.45;;
24743;SDS011;12844;52.110;5.548;2023-07-02T17:27:20;4.25;;;3.15;;
24743;SDS011;12844;52.110;5.548;2023-07-02T17:29:48;5.38;;;3.60;;
24743;SDS011;12844;52.110;5.548;2023-07-02T17:32:15;4.30;;;3.17;;
24743;SDS011;12844;52.110;5.548;2023-07-02T17:34:41;5.35;;;3.78;;
24743;SDS011;12844;52.110;5.548;2023-07-02T17:37:07;4.50;;;3.15;;
24743;SDS011;12844;52.110;5.548;2023-07-02T17:39:34;3.72;;;3.17;;
24743;SDS011;12844;52.110;5.548;2023-07-02T17:42:01;3.78;;;3.20;;
24743;SDS011;12844;52.110;5.548;2023-07-02T17:44:29;5.30;;;3.20;;
24743;SDS011;12844;52.110;5.548;2023-07-02T17:46:58;4.72;;;3.40;;
24743;SDS011;12844;52.110;5.548;2023-07-02T17:49:26;4.13;;;3.42;;
24743;SDS011;12844;52.110;5.548;2023-07-02T17:51:53;3.88;;;3.03;;
24743;SDS011;12844;52.110;5.548;2023-07-02T17:54:19;4.43;;;3.38;;
24743;SDS011;12844;52.110;5.548;2023-07-02T17:56:46;4.85;;;3.40;;
24743;SDS011;12844;52.110;5.548;2023-07-02T17:59:13;4.57;;;3.28;;
24743;SDS011;12844;52.110;5.548;2023-07-02T18:01:44;4.32;;;3.30;;
24743;SDS011;12844;52.110;5.548;2023-07-02T18:04:10;4.50;;;3.03;;
24743;SDS011;12844;52.110;5.548;2023-07-02T18:06:40;4.78;;;3.47;;
24743;SDS011;12844;52.110;5.548;2023-07-02T18:09:06;4.10;;;3.20;;
24743;SDS011;12844;52.110;5.548;2023-07-02T18:11:32;4.53;;;3.15;;
24743;SDS011;12844;52.110;5.548;2023-07-02T18:13:59;3.83;;;3.00;;
24743;SDS011;12844;52.110;5.548;2023-07-02T18:16:25;4.75;;;3.10;;
24743;SDS011;12844;52.110;5.548;2023-07-02T18:18:50;4.03;;;3.10;;
24743;SDS011;12844;52.110;5.548;2023-07-02T18:21:16;4.82;;;3.30;;
24743;SDS011;12844;52.110;5.548;2023-07-02T18:23:41;5.10;;;3.40;;
24743;SDS011;12844;52.110;5.548;2023-07-02T18:26:07;4.53;;;3.42;;
24743;SDS011;12844;52.110;5.548;2023-07-02T18:28:32;4.68;;;3.20;;
24743;SDS011;12844;52.110;5.548;2023-07-02T18:30:58;4.90;;;3.55;;
24743;SDS011;12844;52.110;5.548;2023-07-02T18:33:24;3.47;;;3.08;;
24743;SDS011;12844;52.110;5.548;2023-07-02T18:35:50;4.93;;;3.40;;
24743;SDS011;12844;52.110;5.548;2023-07-02T18:38:16;5.40;;;3.33;;
24743;SDS011;12844;52.110;5.548;2023-07-02T18:40:43;3.67;;;3.10;;
24743;SDS011;12844;52.110;5.548;2023-07-02T18:43:09;4.75;;;3.33;;
24743;SDS011;12844;52.110;5.548;2023-07-02T18:45:36;4.65;;;3.40;;
24743;SDS011;12844;52.110;5.548;2023-07-02T18:48:02;4.65;;;3.40;;
24743;SDS011;12844;52.110;5.548;2023-07-02T18:50:28;4.43;;;3.28;;
24743;SDS011;12844;52.110;5.548;2023-07-02T18:52:54;4.68;;;3.22;;
24743;SDS011;12844;52.110;5.548;2023-07-02T18:55:20;4.57;;;3.35;;
24743;SDS011;12844;52.110;5.548;2023-07-02T18:57:45;4.85;;;3.40;;
24743;SDS011;12844;52.110;5.548;2023-07-02T19:00:11;4.65;;;3.08;;
24743;SDS011;12844;52.110;5.548;2023-07-02T19:02:37;4.65;;;3.28;;
24743;SDS011;12844;52.110;5.548;2023-07-02T19:05:04;4.57;;;3.63;;
24743;SDS011;12844;52.110;5.548;2023-07-02T19:07:32;5.07;;;3.20;;
24743;SDS011;12844;52.110;5.548;2023-07-02T19:09:58;5.20;;;3.42;;
24743;SDS011;12844;52.110;5.548;2023-07-02T19:12:25;4.15;;;3.20;;
24743;SDS011;12844;52.110;5.548;2023-07-02T19:14:52;4.88;;;3.47;;
24743;SDS011;12844;52.110;5.548;2023-07-02T19:17:19;4.97;;;3.30;;
24743;SDS011;12844;52.110;5.548;2023-07-02T19:19:45;5.10;;;3.42;;
24743;SDS011;12844;52.110;5.548;2023-07-02T19:22:12;4.82;;;3.40;;
24743;SDS011;12844;52.110;5.548;2023-07-02T19:24:39;4.68;;;3.20;;
24743;SDS011;12844;52.110;5.548;2023-07-02T19:27:06;4.07;;;2.90;;
24743;SDS011;12844;52.110;5.548;2023-07-02T19:29:33;4.18;;;3.20;;
24743;SDS011;12844;52.110;5.548;2023-07-02T19:32:01;5.70;;;3.72;;
24743;SDS011;12844;52.110;5.548;2023-07-02T19:34:27;5.40;;;3.50;;
24743;SDS011;12844;52.110;5.548;2023-07-02T19:36:53;5.28;;;3.10;;
24743;SDS011;12844;52.110;5.548;2023-07-02T19:39:19;4.72;;;3.60;;
24743;SDS011;12844;52.110;5.548;2023-07-02T19:41:45;4.32;;;3.20;;
24743;SDS011;12844;52.110;5.548;2023-07-02T19:44:11;4.80;;;3.55;;
24743;SDS011;12844;52.110;5.548;2023-07-02T19:46:38;4.68;;;3.47;;
24743;SDS011;12844;52.110;5.548;2023-07-02T19:49:04;6.35;;;3.35;;
24743;SDS011;12844;52.110;5.548;2023-07-02T19:51:30;4.32;;;3.10;;
24743;SDS011;12844;52.110;5.548;2023-07-02T19:53:56;3.97;;;2.75;;
24743;SDS011;12844;52.110;5.548;2023-07-02T19:56:22;4.72;;;3.40;;
24743;SDS011;12844;52.110;5.548;2023-07-02T19:58:48;4.70;;;3.50;;
24743;SDS011;12844;52.110;5.548;2023-07-02T20:01:14;3.92;;;3.50;;
24743;SDS011;12844;52.110;5.548;2023-07-02T20:03:41;4.30;;;3.20;;
24743;SDS011;12844;52.110;5.548;2023-07-02T20:06:06;4.60;;;3.38;;
24743;SDS011;12844;52.110;5.548;2023-07-02T20:08:34;4.25;;;3.15;;
24743;SDS011;12844;52.110;5.548;2023-07-02T20:11:00;5.03;;;3.47;;
24743;SDS011;12844;52.110;5.548;2023-07-02T20:13:25;4.85;;;3.50;;
24743;SDS011;12844;52.110;5.548;2023-07-02T20:15:51;4.68;;;3.20;;
24743;SDS011;12844;52.110;5.548;2023-07-02T20:18:21;4.38;;;3.35;;
24743;SDS011;12844;52.110;5.548;2023-07-02T20:20:47;4.60;;;3.42;;
24743;SDS011;12844;52.110;5.548;2023-07-02T20:23:14;4.65;;;3.28;;
24743;SDS011;12844;52.110;5.548;2023-07-02T20:25:40;4.50;;;3.30;;
24743;SDS011;12844;52.110;5.548;2023-07-02T20:28:05;5.25;;;3.58;;
24743;SDS011;12844;52.110;5.548;2023-07-02T20:30:31;4.80;;;3.65;;
24743;SDS011;12844;52.110;5.548;2023-07-02T20:32:56;5.30;;;3.65;;
24743;SDS011;12844;52.110;5.548;2023-07-02T20:35:22;5.15;;;3.42;;
24743;SDS011;12844;52.110;5.548;2023-07-02T20:37:50;4.13;;;3.00;;
24743;SDS011;12844;52.110;5.548;2023-07-02T20:40:16;4.45;;;3.03;;
24743;SDS011;12844;52.110;5.548;2023-07-02T20:42:42;5.50;;;3.47;;
24743;SDS011;12844;52.110;5.548;2023-07-02T20:45:08;5.22;;;3.30;;
24743;SDS011;12844;52.110;5.548;2023-07-02T20:47:37;4.95;;;2.90;;
24743;SDS011;12844;52.110;5.548;2023-07-02T20:50:05;4.25;;;3.30;;
24743;SDS011;12844;52.110;5.548;2023-07-02T20:52:37;5.63;;;3.42;;
24743;SDS011;12844;52.110;5.548;2023-07-02T20:55:04;5.40;;;3.33;;
24743;SDS011;12844;52.110;5.548;2023-07-02T20:57:30;4.60;;;3.30;;
24743;SDS011;12844;52.110;5.548;2023-07-02T20:59:56;4.57;;;3.50;;
24743;SDS011;12844;52.110;5.548;2023-07-02T21:02:24;4.88;;;3.33;;
24743;SDS011;12844;52.110;5.548;2023-07-02T21:04:50;5.20;;;3.35;;
24743;SDS011;12844;52.110;5.548;2023-07-02T21:07:20;5.78;;;3.13;;
24743;SDS011;12844;52.110;5.548;2023-07-02T21:09:50;5.18;;;3.88;;
24743;SDS011;12844;52.110;5.548;2023-07-02T21:12:15;4.95;;;3.67;;
24743;SDS011;12844;52.110;5.548;2023-07-02T21:14:41;4.45;;;3.22;;
24743;SDS011;12844;52.110;5.548;2023-07-02T21:17:06;5.30;;;3.80;;
24743;SDS011;12844;52.110;5.548;2023-07-02T21:19:35;4.30;;;3.30;;
24743;SDS011;12844;52.110;5.548;2023-07-02T21:22:02;4.68;;;3.40;;
24743;SDS011;12844;52.110;5.548;2023-07-02T21:24:27;4.95;;;3.45;;
24743;SDS011;12844;52.110;5.548;2023-07-02T21:26:53;5.28;;;3.60;;
24743;SDS011;12844;52.110;5.548;2023-07-02T21:29:19;4.43;;;3.30;;
24743;SDS011;12844;52.110;5.548;2023-07-02T21:31:44;4.70;;;3.35;;
24743;SDS011;12844;52.110;5.548;2023-07-02T21:34:10;5.72;;;3.70;;
24743;SDS011;12844;52.110;5.548;2023-07-02T21:36:35;5.97;;;3.65;;
24743;SDS011;12844;52.110;5.548;2023-07-02T21:39:01;4.78;;;3.38;;
24743;SDS011;12844;52.110;5.548;2023-07-02T21:41:27;5.15;;;3.65;;
24743;SDS011;12844;52.110;5.548;2023-07-02T21:43:53;3.95;;;3.40;;
24743;SDS011;12844;52.110;5.548;2023-07-02T21:46:19;5.63;;;3.83;;
24743;SDS011;12844;52.110;5.548;2023-07-02T21:48:45;5.32;;;3.33;;
24743;SDS011;12844;52.110;5.548;2023-07-02T21:51:12;4.65;;;3.42;;
24743;SDS011;12844;52.110;5.548;2023-07-02T21:53:37;4.95;;;3.20;;
24743;SDS011;12844;52.110;5.548;2023-07-02T21:56:03;5.70;;;3.35;;
24743;SDS011;12844;52.110;5.548;2023-07-02T21:58:29;4.70;;;3.33;;
24743;SDS011;12844;52.110;5.548;2023-07-02T22:00:54;6.20;;;3.40;;
24743;SDS011;12844;52.110;5.548;2023-07-02T22:03:20;5.20;;;3.28;;
24743;SDS011;12844;52.110;5.548;2023-07-02T22:05:52;6.13;;;3.50;;
24743;SDS011;12844;52.110;5.548;2023-07-02T22:08:18;4.40;;;3.20;;
24743;SDS011;12844;52.110;5.548;2023-07-02T22:10:45;4.45;;;3.40;;
24743;SDS011;12844;52.110;5.548;2023-07-02T22:13:12;4.43;;;2.90;;
24743;SDS011;12844;52.110;5.548;2023-07-02T22:15:37;5.85;;;3.40;;
24743;SDS011;12844;52.110;5.548;2023-07-02T22:18:03;4.53;;;3.30;;
24743;SDS011;12844;52.110;5.548;2023-07-02T22:20:33;4.35;;;2.95;;
24743;SDS011;12844;52.110;5.548;2023-07-02T22:23:00;5.25;;;3.33;;
24743;SDS011;12844;52.110;5.548;2023-07-02T22:25:26;4.30;;;3.25;;
24743;SDS011;12844;52.110;5.548;2023-07-02T22:27:53;5.38;;;3.20;;
24743;SDS011;12844;52.110;5.548;2023-07-02T22:30:19;5.13;;;3.47;;
24743;SDS011;12844;52.110;5.548;2023-07-02T22:32:45;5.57;;;3.25;;
24743;SDS011;12844;52.110;5.548;2023-07-02T22:35:11;4.65;;;3.13;;
24743;SDS011;12844;52.110;5.548;2023-07-02T22:37:37;7.53;;;3.28;;
24743;SDS011;12844;52.110;5.548;2023-07-02T22:40:07;6.10;;;3.28;;
24743;SDS011;12844;52.110;5.548;2023-07-02T22:42:37;6.18;;;3.40;;
24743;SDS011;12844;52.110;5.548;2023-07-02T22:45:08;5.15;;;3.40;;
24743;SDS011;12844;52.110;5.548;2023-07-02T22:47:36;5.43;;;3.13;;
24743;SDS011;12844;52.110;5.548;2023-07-02T22:50:03;5.25;;;3.22;;
24743;SDS011;12844;52.110;5.548;2023-07-02T22:52:29;6.18;;;3.20;;
24743;SDS011;12844;52.110;5.548;2023-07-02T22:54:55;5.22;;;3.13;;
24743;SDS011;12844;52.110;5.548;2023-07-02T22:57:21;5.13;;;3.17;;
24743;SDS011;12844;52.110;5.548;2023-07-02T22:59:47;5.35;;;3.35;;
24743;SDS011;12844;52.110;5.548;2023-07-02T23:02:14;4.20;;;2.90;;
24743;SDS011;12844;52.110;5.548;2023-07-02T23:04:40;5.13;;;3.30;;
24743;SDS011;12844;52.110;5.548;2023-07-02T23:07:05;6.32;;;3.28;;
24743;SDS011;12844;52.110;5.548;2023-07-02T23:09:31;5.57;;;3.03;;
24743;SDS011;12844;52.110;5.548;2023-07-02T23:11:57;4.93;;;3.45;;
24743;SDS011;12844;52.110;5.548;2023-07-02T23:14:22;5.18;;;3.25;;
24743;SDS011;12844;52.110;5.548;2023-07-02T23:16:48;6.30;;;3.50;;
24743;SDS011;12844;52.110;5.548;2023-07-02T23:19:14;5.75;;;3.33;;
24743;SDS011;12844;52.110;5.548;2023-07-02T23:21:39;5.63;;;2.92;;
24743;SDS011;12844;52.110;5.548;2023-07-02T23:24:11;6.88;;;3.42;;
24743;SDS011;12844;52.110;5.548;2023-07-02T23:26:38;5.22;;;3.00;;
24743;SDS011;12844;52.110;5.548;2023-07-02T23:29:05;4.47;;;2.92;;
24743;SDS011;12844;52.110;5.548;2023-07-02T23:31:31;6.38;;;3.33;;
24743;SDS011;12844;52.110;5.548;2023-07-02T23:33:58;5.82;;;3.13;;
24743;SDS011;12844;52.110;5.548;2023-07-02T23:36:23;5.20;;;3.10;;
24743;SDS011;12844;52.110;5.548;2023-07-02T23:38:52;4.45;;;2.90;;
24743;SDS011;12844;52.110;5.548;2023-07-02T23:41:19;5.65;;;3.00;;
24743;SDS011;12844;52.110;5.548;2023-07-02T23:43:45;5.50;;;3.20;;
24743;SDS011;12844;52.110;5.548;2023-07-02T23:46:11;4.60;;;3.17;;
24743;SDS011;12844;52.110;5.548;2023-07-02T23:48:37;5.03;;;3.03;;
24743;SDS011;12844;52.110;5.548;2023-07-02T23:51:03;6.10;;;3.20;;
24743;SDS011;12844;52.110;5.548;2023-07-02T23:53:28;4.00;;;3.08;;
24743;SDS011;12844;52.110;5.548;2023-07-02T23:55:54;5.63;;;3.10;;
24743;SDS011;12844;52.110;5.548;2023-07-02T23:58:20;5.07;;;3.00;;
